CHH7141 ZGGG-ZUCK
Flight info
| Callsign | CHH7141 |
|---|---|
| Flight time | 1h 42m |
| Altitude | FL361 |
| Route | AGVIL9 AGVIL W24 OSNOV G586 QP B330 SJG G586 LAGEX W182 UGUGU V50 VILUS SEGDA SEGDE1 |
| Aircraft | B738/M-SDE2E3FGHIRWXY/LB1 |
Departure
| Time | 2026-05-08 06:08 |
|---|---|
| Airport | Guangzhou Baiyun International Airport (ZGGG) |
Arrival
| Time | 2026-05-08 07:50 |
|---|---|
| Airport | Chongqing Jiangbei International Airport (ZUCK) |
| Time | Latitude | Longitude | Altitude | Speed | Heading |
|---|---|---|---|---|---|
| 2026-05-08 05:28 | 23.38951 | 113.29274 | 57 ft | 0 kts | 1° |
| 2026-05-08 05:50 | 23.38936 | 113.29273 | 74 ft | 4 kts | 1° |
| 2026-05-08 05:51 | 23.38909 | 113.29273 | 53 ft | 3 kts | 1° |
| 2026-05-08 05:51 | 23.38888 | 113.29274 | 54 ft | 4 kts | 332° |
| 2026-05-08 05:51 | 23.38871 | 113.29293 | 53 ft | 4 kts | 288° |
| 2026-05-08 05:51 | 23.38867 | 113.29309 | 53 ft | 0 kts | 271° |
| 2026-05-08 05:57 | 23.38868 | 113.29301 | 57 ft | 6 kts | 271° |
| 2026-05-08 05:57 | 23.38868 | 113.29244 | 57 ft | 8 kts | 271° |
| 2026-05-08 05:58 | 23.38869 | 113.29188 | 58 ft | 7 kts | 271° |
| 2026-05-08 05:58 | 23.38870 | 113.29134 | 58 ft | 7 kts | 271° |
| 2026-05-08 05:58 | 23.38874 | 113.29083 | 58 ft | 7 kts | 287° |
| 2026-05-08 05:58 | 23.38910 | 113.29056 | 53 ft | 7 kts | 358° |
| 2026-05-08 05:59 | 23.38956 | 113.29067 | 53 ft | 7 kts | 14° |
| 2026-05-08 05:59 | 23.39013 | 113.29083 | 53 ft | 12 kts | 14° |
| 2026-05-08 05:59 | 23.39053 | 113.29094 | 50 ft | 7 kts | 14° |
| 2026-05-08 05:59 | 23.39098 | 113.29105 | 56 ft | 7 kts | 13° |
| 2026-05-08 06:00 | 23.39142 | 113.29117 | 53 ft | 6 kts | 14° |
| 2026-05-08 06:00 | 23.39215 | 113.29137 | 53 ft | 18 kts | 14° |
| 2026-05-08 06:00 | 23.39365 | 113.29178 | 53 ft | 23 kts | 14° |
| 2026-05-08 06:00 | 23.39518 | 113.29220 | 53 ft | 22 kts | 14° |
| 2026-05-08 06:01 | 23.39667 | 113.29261 | 53 ft | 22 kts | 14° |
| 2026-05-08 06:01 | 23.39813 | 113.29299 | 55 ft | 21 kts | 14° |
| 2026-05-08 06:01 | 23.39954 | 113.29338 | 54 ft | 21 kts | 14° |
| 2026-05-08 06:01 | 23.40090 | 113.29374 | 56 ft | 20 kts | 13° |
| 2026-05-08 06:02 | 23.40223 | 113.29410 | 56 ft | 19 kts | 14° |
| 2026-05-08 06:02 | 23.40351 | 113.29445 | 51 ft | 19 kts | 13° |
| 2026-05-08 06:02 | 23.40442 | 113.29469 | 54 ft | 13 kts | 13° |
| 2026-05-08 06:02 | 23.40527 | 113.29492 | 54 ft | 12 kts | 14° |
| 2026-05-08 06:03 | 23.40563 | 113.29494 | 55 ft | 2 kts | 329° |
| 2026-05-08 06:03 | 23.40581 | 113.29451 | 51 ft | 8 kts | 277° |
| 2026-05-08 06:03 | 23.40588 | 113.29394 | 57 ft | 8 kts | 283° |
| 2026-05-08 06:03 | 23.40598 | 113.29354 | 58 ft | 5 kts | 284° |
| 2026-05-08 06:04 | 23.40606 | 113.29316 | 51 ft | 5 kts | 284° |
| 2026-05-08 06:04 | 23.40615 | 113.29278 | 55 ft | 5 kts | 284° |
| 2026-05-08 06:04 | 23.40619 | 113.29260 | 52 ft | 0 kts | 284° |
| 2026-05-08 06:06 | 23.40620 | 113.29256 | 52 ft | 5 kts | 284° |
| 2026-05-08 06:06 | 23.40631 | 113.29208 | 59 ft | 7 kts | 284° |
| 2026-05-08 06:06 | 23.40633 | 113.29160 | 53 ft | 7 kts | 248° |
| 2026-05-08 06:07 | 23.40596 | 113.29134 | 59 ft | 6 kts | 188° |
| 2026-05-08 06:07 | 23.40541 | 113.29121 | 55 ft | 23 kts | 194° |
| 2026-05-08 06:07 | 23.40118 | 113.29008 | 51 ft | 101 kts | 194° |
| 2026-05-08 06:07 | 23.39221 | 113.28769 | 60 ft | 163 kts | 192° |
| 2026-05-08 06:08 | 23.38096 | 113.28432 | 781 ft | 165 kts | 197° |
| 2026-05-08 06:08 | 23.36922 | 113.28023 | 1146 ft | 200 kts | 198° |
| 2026-05-08 06:08 | 23.35477 | 113.27519 | 1447 ft | 229 kts | 198° |
| 2026-05-08 06:08 | 23.33963 | 113.26990 | 2196 ft | 225 kts | 197° |
| 2026-05-08 06:09 | 23.32530 | 113.26462 | 3215 ft | 211 kts | 198° |
| 2026-05-08 06:09 | 23.31191 | 113.25930 | 4247 ft | 202 kts | 198° |
| 2026-05-08 06:09 | 23.29901 | 113.25376 | 5085 ft | 205 kts | 209° |
| 2026-05-08 06:09 | 23.28670 | 113.24459 | 5434 ft | 224 kts | 212° |
| 2026-05-08 06:10 | 23.27273 | 113.23621 | 5932 ft | 230 kts | 207° |
| 2026-05-08 06:10 | 23.25856 | 113.22957 | 6853 ft | 213 kts | 205° |
| 2026-05-08 06:10 | 23.24525 | 113.22384 | 7702 ft | 203 kts | 205° |
| 2026-05-08 06:10 | 23.23201 | 113.21786 | 8143 ft | 214 kts | 206° |
| 2026-05-08 06:11 | 23.21794 | 113.21087 | 8382 ft | 233 kts | 208° |
| 2026-05-08 06:11 | 23.20420 | 113.20110 | 8712 ft | 243 kts | 227° |
| 2026-05-08 06:11 | 23.19479 | 113.18581 | 9199 ft | 246 kts | 248° |
| 2026-05-08 06:11 | 23.19077 | 113.16846 | 10134 ft | 229 kts | 265° |
| 2026-05-08 06:12 | 23.19142 | 113.15183 | 11033 ft | 216 kts | 279° |
| 2026-05-08 06:12 | 23.19561 | 113.13603 | 11535 ft | 225 kts | 291° |
| 2026-05-08 06:12 | 23.20292 | 113.11988 | 11513 ft | 257 kts | 298° |
| 2026-05-08 06:12 | 23.21347 | 113.10227 | 11102 ft | 303 kts | 304° |
| 2026-05-08 06:13 | 23.22863 | 113.08333 | 9903 ft | 368 kts | 318° |
| 2026-05-08 06:13 | 23.25257 | 113.06755 | 8078 ft | 442 kts | 341° |
| 2026-05-08 06:13 | 23.28227 | 113.06186 | 9153 ft | 418 kts | 352° |
| 2026-05-08 06:13 | 23.30935 | 113.06040 | 11266 ft | 365 kts | 359° |
| 2026-05-08 06:14 | 23.33316 | 113.06208 | 13207 ft | 335 kts | 2° |
| 2026-05-08 06:14 | 23.35581 | 113.06248 | 14077 ft | 333 kts | 359° |
| 2026-05-08 06:14 | 23.37928 | 113.06413 | 14560 ft | 347 kts | 0° |
| 2026-05-08 06:14 | 23.40446 | 113.06448 | 14334 ft | 379 kts | 357° |
| 2026-05-08 06:15 | 23.43186 | 113.06445 | 14094 ft | 408 kts | 359° |
| 2026-05-08 06:15 | 23.46054 | 113.06502 | 14367 ft | 416 kts | 359° |
| 2026-05-08 06:15 | 23.48936 | 113.06614 | 14967 ft | 414 kts | 0° |
| 2026-05-08 06:15 | 23.51792 | 113.06794 | 15793 ft | 407 kts | 1° |
| 2026-05-08 06:16 | 23.54591 | 113.07045 | 16606 ft | 403 kts | 2° |
| 2026-05-08 06:16 | 23.57387 | 113.07370 | 17165 ft | 407 kts | 4° |
| 2026-05-08 06:16 | 23.60223 | 113.07779 | 17422 ft | 418 kts | 6° |
| 2026-05-08 06:16 | 23.63119 | 113.08290 | 17468 ft | 424 kts | 7° |
| 2026-05-08 06:17 | 23.68956 | 113.08642 | 16339 ft | 420 kts | 353° |
| 2026-05-08 06:17 | 23.71799 | 113.08281 | 16491 ft | 405 kts | 348° |
| 2026-05-08 06:17 | 23.74508 | 113.07680 | 17551 ft | 389 kts | 343° |
| 2026-05-08 06:18 | 23.77029 | 113.06942 | 18928 ft | 367 kts | 340° |
| 2026-05-08 06:18 | 23.79280 | 113.06178 | 19432 ft | 372 kts | 339° |
| 2026-05-08 06:18 | 23.81758 | 113.05290 | 19662 ft | 380 kts | 339° |
| 2026-05-08 06:18 | 23.84206 | 113.04174 | 19881 ft | 384 kts | 323° |
| 2026-05-08 06:19 | 23.86188 | 113.02238 | 20146 ft | 385 kts | 312° |
| 2026-05-08 06:19 | 23.88152 | 113.00219 | 20380 ft | 393 kts | 317° |
| 2026-05-08 06:19 | 23.90358 | 112.98412 | 20618 ft | 401 kts | 324° |
| 2026-05-08 06:19 | 23.92761 | 112.96830 | 20864 ft | 407 kts | 328° |
| 2026-05-08 06:20 | 23.95291 | 112.95412 | 21113 ft | 413 kts | 332° |
| 2026-05-08 06:20 | 23.97904 | 112.94079 | 21376 ft | 418 kts | 333° |
| 2026-05-08 06:20 | 24.00572 | 112.92771 | 21630 ft | 423 kts | 333° |
| 2026-05-08 06:20 | 24.03274 | 112.91459 | 21851 ft | 427 kts | 333° |
| 2026-05-08 06:21 | 24.05991 | 112.90134 | 22102 ft | 430 kts | 333° |
| 2026-05-08 06:21 | 24.08716 | 112.88793 | 22365 ft | 432 kts | 333° |
| 2026-05-08 06:21 | 24.11427 | 112.87453 | 22621 ft | 435 kts | 333° |
| 2026-05-08 06:21 | 24.14190 | 112.86083 | 22869 ft | 437 kts | 333° |
| 2026-05-08 06:22 | 24.17000 | 112.84798 | 23118 ft | 441 kts | 338° |
| 2026-05-08 06:22 | 24.19923 | 112.83776 | 23396 ft | 443 kts | 341° |
| 2026-05-08 06:22 | 24.22882 | 112.82859 | 23648 ft | 444 kts | 341° |
| 2026-05-08 06:22 | 24.25857 | 112.81948 | 23868 ft | 445 kts | 341° |
| 2026-05-08 06:23 | 24.28828 | 112.81012 | 24077 ft | 446 kts | 340° |
| 2026-05-08 06:23 | 24.31799 | 112.80046 | 24297 ft | 446 kts | 340° |
| 2026-05-08 06:23 | 24.34768 | 112.79061 | 24521 ft | 447 kts | 340° |
| 2026-05-08 06:23 | 24.37736 | 112.78068 | 24738 ft | 448 kts | 340° |
| 2026-05-08 06:24 | 24.40710 | 112.77074 | 24966 ft | 447 kts | 339° |
| 2026-05-08 06:24 | 24.43642 | 112.75974 | 25169 ft | 445 kts | 330° |
| 2026-05-08 06:24 | 24.46153 | 112.74085 | 25392 ft | 437 kts | 313° |
| 2026-05-08 06:24 | 24.48046 | 112.71518 | 25660 ft | 432 kts | 300° |
| 2026-05-08 06:25 | 24.49372 | 112.68584 | 25891 ft | 430 kts | 288° |
| 2026-05-08 06:25 | 24.50013 | 112.65413 | 26129 ft | 429 kts | 277° |
| 2026-05-08 06:25 | 24.50348 | 112.62158 | 26374 ft | 429 kts | 276° |
| 2026-05-08 06:25 | 24.50631 | 112.58921 | 26596 ft | 429 kts | 275° |
| 2026-05-08 06:26 | 24.50905 | 112.55666 | 26836 ft | 429 kts | 275° |
| 2026-05-08 06:26 | 24.51185 | 112.52418 | 27078 ft | 429 kts | 275° |
| 2026-05-08 06:26 | 24.51476 | 112.49170 | 27318 ft | 428 kts | 276° |
| 2026-05-08 06:26 | 24.51777 | 112.45922 | 27552 ft | 428 kts | 276° |
| 2026-05-08 06:27 | 24.52084 | 112.42680 | 27819 ft | 427 kts | 276° |
| 2026-05-08 06:27 | 24.52391 | 112.39478 | 28062 ft | 427 kts | 276° |
| 2026-05-08 06:27 | 24.52702 | 112.36238 | 28320 ft | 427 kts | 276° |
| 2026-05-08 06:27 | 24.53013 | 112.33008 | 28555 ft | 427 kts | 276° |
| 2026-05-08 06:28 | 24.53323 | 112.29779 | 28785 ft | 426 kts | 276° |
| 2026-05-08 06:28 | 24.53629 | 112.26586 | 29046 ft | 425 kts | 276° |
| 2026-05-08 06:28 | 24.53936 | 112.23368 | 29312 ft | 424 kts | 275° |
| 2026-05-08 06:28 | 24.54243 | 112.20151 | 29568 ft | 424 kts | 275° |
| 2026-05-08 06:29 | 24.54547 | 112.16944 | 29836 ft | 423 kts | 275° |
| 2026-05-08 06:29 | 24.54851 | 112.13736 | 30098 ft | 422 kts | 275° |
| 2026-05-08 06:29 | 24.55153 | 112.10537 | 30325 ft | 422 kts | 275° |
| 2026-05-08 06:29 | 24.55453 | 112.07365 | 30541 ft | 422 kts | 275° |
| 2026-05-08 06:30 | 24.55753 | 112.04171 | 30752 ft | 421 kts | 275° |
| 2026-05-08 06:30 | 24.56051 | 112.00986 | 30989 ft | 420 kts | 275° |
| 2026-05-08 06:30 | 24.56349 | 111.97806 | 31222 ft | 419 kts | 275° |
| 2026-05-08 06:30 | 24.56646 | 111.94633 | 31445 ft | 418 kts | 275° |
| 2026-05-08 06:31 | 24.56941 | 111.91464 | 31688 ft | 418 kts | 275° |
| 2026-05-08 06:31 | 24.57231 | 111.88349 | 31912 ft | 417 kts | 275° |
| 2026-05-08 06:31 | 24.57523 | 111.85195 | 32157 ft | 416 kts | 275° |
| 2026-05-08 06:31 | 24.57815 | 111.82043 | 32386 ft | 415 kts | 275° |
| 2026-05-08 06:32 | 24.58106 | 111.78892 | 32631 ft | 415 kts | 275° |
| 2026-05-08 06:32 | 24.58393 | 111.75778 | 32876 ft | 414 kts | 275° |
| 2026-05-08 06:32 | 24.58681 | 111.72641 | 33122 ft | 413 kts | 275° |
| 2026-05-08 06:32 | 24.58969 | 111.69507 | 33370 ft | 412 kts | 275° |
| 2026-05-08 06:33 | 24.59255 | 111.66380 | 33619 ft | 412 kts | 275° |
| 2026-05-08 06:33 | 24.59534 | 111.63323 | 33864 ft | 411 kts | 275° |
| 2026-05-08 06:33 | 24.59817 | 111.60213 | 34101 ft | 410 kts | 275° |
| 2026-05-08 06:33 | 24.60100 | 111.57103 | 34334 ft | 409 kts | 275° |
| 2026-05-08 06:34 | 24.60379 | 111.54021 | 34549 ft | 408 kts | 275° |
| 2026-05-08 06:34 | 24.60660 | 111.50913 | 34752 ft | 408 kts | 275° |
| 2026-05-08 06:34 | 24.60940 | 111.47807 | 34869 ft | 410 kts | 275° |
| 2026-05-08 06:34 | 24.61221 | 111.44692 | 34938 ft | 413 kts | 275° |
| 2026-05-08 06:35 | 24.61789 | 111.38368 | 35032 ft | 419 kts | 275° |
| 2026-05-08 06:35 | 24.62362 | 111.31949 | 35045 ft | 426 kts | 275° |
| 2026-05-08 06:36 | 24.62935 | 111.25439 | 35047 ft | 431 kts | 275° |
| 2026-05-08 06:36 | 24.63501 | 111.18874 | 35038 ft | 432 kts | 275° |
| 2026-05-08 06:37 | 24.64061 | 111.12356 | 35026 ft | 426 kts | 275° |
| 2026-05-08 06:37 | 24.64611 | 111.05934 | 35035 ft | 422 kts | 275° |
| 2026-05-08 06:38 | 24.65156 | 110.99549 | 35034 ft | 419 kts | 275° |
| 2026-05-08 06:38 | 24.65698 | 110.93154 | 35041 ft | 424 kts | 275° |
| 2026-05-08 06:39 | 24.66244 | 110.86691 | 35043 ft | 428 kts | 275° |
| 2026-05-08 06:39 | 24.67171 | 110.80312 | 35039 ft | 431 kts | 289° |
| 2026-05-08 06:40 | 24.70030 | 110.74525 | 35028 ft | 438 kts | 304° |
| 2026-05-08 06:40 | 24.74358 | 110.69772 | 35025 ft | 442 kts | 312° |
| 2026-05-08 06:41 | 24.78806 | 110.65202 | 35041 ft | 441 kts | 311° |
| 2026-05-08 06:41 | 24.83199 | 110.60620 | 35029 ft | 440 kts | 311° |
| 2026-05-08 06:42 | 24.87606 | 110.55979 | 35022 ft | 439 kts | 311° |
| 2026-05-08 06:42 | 24.91991 | 110.51345 | 35037 ft | 437 kts | 311° |
| 2026-05-08 06:43 | 24.96358 | 110.46726 | 35039 ft | 436 kts | 311° |
| 2026-05-08 06:43 | 25.00715 | 110.42116 | 35039 ft | 434 kts | 311° |
| 2026-05-08 06:44 | 25.05071 | 110.37517 | 35035 ft | 434 kts | 311° |
| 2026-05-08 06:44 | 25.09425 | 110.32918 | 35056 ft | 434 kts | 311° |
| 2026-05-08 06:45 | 25.13781 | 110.28312 | 35073 ft | 434 kts | 311° |
| 2026-05-08 06:45 | 25.18127 | 110.23709 | 35066 ft | 434 kts | 311° |
| 2026-05-08 06:46 | 25.22486 | 110.19110 | 35073 ft | 435 kts | 311° |
| 2026-05-08 06:46 | 25.26879 | 110.14514 | 35077 ft | 436 kts | 311° |
| 2026-05-08 06:47 | 25.31226 | 110.09965 | 35074 ft | 436 kts | 311° |
| 2026-05-08 06:47 | 25.35617 | 110.05364 | 35067 ft | 435 kts | 311° |
| 2026-05-08 06:48 | 25.39996 | 110.00765 | 35070 ft | 435 kts | 311° |
| 2026-05-08 06:48 | 25.44376 | 109.96162 | 35073 ft | 435 kts | 311° |
| 2026-05-08 06:49 | 25.48760 | 109.91547 | 35101 ft | 436 kts | 311° |
| 2026-05-08 06:49 | 25.53127 | 109.86947 | 35089 ft | 435 kts | 311° |
| 2026-05-08 06:50 | 25.57499 | 109.82338 | 35087 ft | 435 kts | 311° |
| 2026-05-08 06:50 | 25.61838 | 109.77757 | 35096 ft | 435 kts | 310° |
| 2026-05-08 06:51 | 25.66202 | 109.73133 | 35110 ft | 434 kts | 310° |
| 2026-05-08 06:51 | 25.70572 | 109.68514 | 35093 ft | 436 kts | 311° |
| 2026-05-08 06:52 | 25.74940 | 109.63887 | 35105 ft | 435 kts | 310° |
| 2026-05-08 06:52 | 25.79402 | 109.59358 | 35107 ft | 437 kts | 314° |
| 2026-05-08 06:53 | 25.84152 | 109.55144 | 35118 ft | 438 kts | 315° |
| 2026-05-08 06:53 | 25.88887 | 109.51009 | 35115 ft | 438 kts | 316° |
| 2026-05-08 06:54 | 25.93641 | 109.46818 | 35126 ft | 437 kts | 315° |
| 2026-05-08 06:54 | 25.98373 | 109.42606 | 35118 ft | 435 kts | 315° |
| 2026-05-08 06:55 | 26.03093 | 109.38397 | 35137 ft | 436 kts | 314° |
| 2026-05-08 06:55 | 26.07806 | 109.34181 | 35124 ft | 436 kts | 315° |
| 2026-05-08 06:56 | 26.12527 | 109.29971 | 35130 ft | 435 kts | 315° |
| 2026-05-08 06:56 | 26.17238 | 109.25761 | 35142 ft | 435 kts | 314° |
| 2026-05-08 06:57 | 26.21948 | 109.21543 | 35142 ft | 435 kts | 315° |
| 2026-05-08 06:57 | 26.26652 | 109.17328 | 35136 ft | 435 kts | 314° |
| 2026-05-08 06:58 | 26.31355 | 109.13108 | 35146 ft | 434 kts | 315° |
| 2026-05-08 06:58 | 26.36040 | 109.08900 | 35163 ft | 433 kts | 314° |
| 2026-05-08 06:59 | 26.40559 | 109.04547 | 35151 ft | 425 kts | 304° |
| 2026-05-08 06:59 | 26.43654 | 108.99112 | 35161 ft | 415 kts | 291° |
| 2026-05-08 07:00 | 26.45341 | 108.93025 | 35169 ft | 411 kts | 282° |
| 2026-05-08 07:00 | 26.46750 | 108.86843 | 35164 ft | 413 kts | 282° |
| 2026-05-08 07:01 | 26.48183 | 108.80643 | 35178 ft | 414 kts | 282° |
| 2026-05-08 07:01 | 26.49635 | 108.74434 | 35178 ft | 415 kts | 282° |
| 2026-05-08 07:02 | 26.51089 | 108.68224 | 35174 ft | 414 kts | 282° |
| 2026-05-08 07:02 | 26.52540 | 108.62012 | 35201 ft | 414 kts | 282° |
| 2026-05-08 07:03 | 26.53985 | 108.55809 | 35193 ft | 413 kts | 282° |
| 2026-05-08 07:03 | 26.55424 | 108.49621 | 35187 ft | 411 kts | 282° |
| 2026-05-08 07:04 | 26.56855 | 108.43456 | 35189 ft | 411 kts | 282° |
| 2026-05-08 07:04 | 26.57887 | 108.40484 | 35189 ft | 416 kts | 296° |
| 2026-05-08 07:04 | 26.59607 | 108.37867 | 35200 ft | 424 kts | 306° |
| 2026-05-08 07:05 | 26.61776 | 108.35605 | 35200 ft | 433 kts | 317° |
| 2026-05-08 07:05 | 26.64415 | 108.33906 | 35211 ft | 445 kts | 327° |
| 2026-05-08 07:05 | 26.70079 | 108.31220 | 35202 ft | 448 kts | 330° |
| 2026-05-08 07:06 | 26.75844 | 108.28593 | 35203 ft | 448 kts | 329° |
| 2026-05-08 07:06 | 26.81349 | 108.26028 | 35200 ft | 447 kts | 329° |
| 2026-05-08 07:07 | 26.87067 | 108.23321 | 35217 ft | 447 kts | 329° |
| 2026-05-08 07:07 | 26.92760 | 108.20607 | 35212 ft | 447 kts | 328° |
| 2026-05-08 07:08 | 26.98451 | 108.17891 | 35196 ft | 447 kts | 328° |
| 2026-05-08 07:08 | 27.04155 | 108.15167 | 35204 ft | 446 kts | 328° |
| 2026-05-08 07:09 | 27.09849 | 108.12446 | 35208 ft | 446 kts | 328° |
| 2026-05-08 07:09 | 27.15545 | 108.09720 | 35208 ft | 446 kts | 328° |
| 2026-05-08 07:10 | 27.21240 | 108.06991 | 35203 ft | 447 kts | 328° |
| 2026-05-08 07:10 | 27.26891 | 108.04283 | 35211 ft | 447 kts | 328° |
| 2026-05-08 07:11 | 27.32576 | 108.01558 | 35214 ft | 447 kts | 328° |
| 2026-05-08 07:11 | 27.38288 | 107.98811 | 35203 ft | 447 kts | 328° |
| 2026-05-08 07:12 | 27.43979 | 107.96071 | 35223 ft | 446 kts | 328° |
| 2026-05-08 07:12 | 27.49672 | 107.93329 | 35238 ft | 446 kts | 328° |
| 2026-05-08 07:13 | 27.55368 | 107.90587 | 35198 ft | 445 kts | 328° |
| 2026-05-08 07:13 | 27.61041 | 107.87846 | 35213 ft | 443 kts | 328° |
| 2026-05-08 07:14 | 27.66687 | 107.85115 | 35219 ft | 443 kts | 328° |
| 2026-05-08 07:14 | 27.72343 | 107.82380 | 35212 ft | 443 kts | 328° |
| 2026-05-08 07:15 | 27.78005 | 107.79635 | 35215 ft | 444 kts | 328° |
| 2026-05-08 07:15 | 27.83500 | 107.76613 | 35223 ft | 433 kts | 319° |
| 2026-05-08 07:16 | 27.88132 | 107.72486 | 35216 ft | 425 kts | 313° |
| 2026-05-08 07:16 | 27.92678 | 107.68231 | 35217 ft | 425 kts | 313° |
| 2026-05-08 07:17 | 27.97239 | 107.64000 | 35221 ft | 425 kts | 313° |
| 2026-05-08 07:17 | 28.01813 | 107.59774 | 35222 ft | 425 kts | 313° |
| 2026-05-08 07:18 | 28.06382 | 107.55549 | 35167 ft | 425 kts | 313° |
| 2026-05-08 07:18 | 28.10906 | 107.51359 | 34937 ft | 413 kts | 313° |
| 2026-05-08 07:19 | 28.13086 | 107.49345 | 34774 ft | 401 kts | 313° |
| 2026-05-08 07:19 | 28.15238 | 107.47349 | 34289 ft | 399 kts | 312° |
| 2026-05-08 07:19 | 28.17387 | 107.45349 | 33378 ft | 405 kts | 313° |
| 2026-05-08 07:19 | 28.19599 | 107.43289 | 32281 ft | 417 kts | 314° |
| 2026-05-08 07:20 | 28.21832 | 107.41277 | 32111 ft | 406 kts | 314° |
| 2026-05-08 07:20 | 28.24067 | 107.39279 | 31790 ft | 412 kts | 314° |
| 2026-05-08 07:20 | 28.26319 | 107.37261 | 30923 ft | 416 kts | 314° |
| 2026-05-08 07:20 | 28.28590 | 107.35232 | 30169 ft | 419 kts | 315° |
| 2026-05-08 07:21 | 28.30890 | 107.33179 | 29246 ft | 422 kts | 315° |
| 2026-05-08 07:21 | 28.33196 | 107.31103 | 28320 ft | 425 kts | 315° |
| 2026-05-08 07:21 | 28.35493 | 107.28998 | 27387 ft | 427 kts | 313° |
| 2026-05-08 07:21 | 28.37683 | 107.26702 | 26310 ft | 433 kts | 311° |
| 2026-05-08 07:22 | 28.39835 | 107.24324 | 25485 ft | 434 kts | 310° |
| 2026-05-08 07:22 | 28.41985 | 107.21922 | 24761 ft | 433 kts | 311° |
| 2026-05-08 07:22 | 28.44126 | 107.19531 | 24067 ft | 432 kts | 311° |
| 2026-05-08 07:22 | 28.46272 | 107.17142 | 23289 ft | 432 kts | 311° |
| 2026-05-08 07:23 | 28.48413 | 107.14777 | 22527 ft | 430 kts | 312° |
| 2026-05-08 07:23 | 28.50552 | 107.12421 | 21815 ft | 428 kts | 312° |
| 2026-05-08 07:23 | 28.52682 | 107.10075 | 21125 ft | 425 kts | 312° |
| 2026-05-08 07:23 | 28.54794 | 107.07745 | 20445 ft | 423 kts | 313° |
| 2026-05-08 07:24 | 28.56899 | 107.05422 | 19739 ft | 422 kts | 313° |
| 2026-05-08 07:24 | 28.58990 | 107.03111 | 19015 ft | 420 kts | 313° |
| 2026-05-08 07:24 | 28.61077 | 107.00810 | 18346 ft | 417 kts | 313° |
| 2026-05-08 07:24 | 28.63155 | 106.98501 | 17566 ft | 415 kts | 311° |
| 2026-05-08 07:25 | 28.64941 | 106.96001 | 16867 ft | 408 kts | 301° |
| 2026-05-08 07:25 | 28.66313 | 106.93190 | 16091 ft | 405 kts | 293° |
| 2026-05-08 07:25 | 28.67926 | 106.87187 | 14795 ft | 395 kts | 282° |
| 2026-05-08 07:26 | 28.68516 | 106.84169 | 14190 ft | 390 kts | 282° |
| 2026-05-08 07:26 | 28.69122 | 106.81175 | 13681 ft | 384 kts | 282° |
| 2026-05-08 07:26 | 28.69736 | 106.78217 | 12757 ft | 387 kts | 283° |
| 2026-05-08 07:26 | 28.70675 | 106.75384 | 12123 ft | 383 kts | 299° |
| 2026-05-08 07:27 | 28.72413 | 106.73094 | 11529 ft | 384 kts | 319° |
| 2026-05-08 07:27 | 28.74633 | 106.71501 | 11346 ft | 373 kts | 333° |
| 2026-05-08 07:27 | 28.77056 | 106.70572 | 11181 ft | 363 kts | 346° |
| 2026-05-08 07:27 | 28.79536 | 106.70364 | 10896 ft | 359 kts | 2° |
| 2026-05-08 07:28 | 28.81979 | 106.70705 | 10725 ft | 349 kts | 6° |
| 2026-05-08 07:28 | 28.84348 | 106.71103 | 10553 ft | 339 kts | 6° |
| 2026-05-08 07:28 | 28.86643 | 106.71486 | 10411 ft | 329 kts | 6° |
| 2026-05-08 07:28 | 28.88860 | 106.71845 | 10265 ft | 319 kts | 6° |
| 2026-05-08 07:29 | 28.91044 | 106.72189 | 10015 ft | 315 kts | 7° |
| 2026-05-08 07:29 | 28.93179 | 106.72520 | 9829 ft | 307 kts | 7° |
| 2026-05-08 07:29 | 28.95268 | 106.72841 | 9756 ft | 296 kts | 7° |
| 2026-05-08 07:29 | 28.97261 | 106.73146 | 9731 ft | 284 kts | 7° |
| 2026-05-08 07:30 | 28.99186 | 106.73441 | 9584 ft | 277 kts | 7° |
| 2026-05-08 07:30 | 29.01084 | 106.73750 | 9345 ft | 275 kts | 12° |
| 2026-05-08 07:30 | 29.02779 | 106.74668 | 9113 ft | 271 kts | 43° |
| 2026-05-08 07:30 | 29.03894 | 106.76347 | 8982 ft | 264 kts | 64° |
| 2026-05-08 07:31 | 29.04587 | 106.78287 | 8698 ft | 264 kts | 70° |
| 2026-05-08 07:31 | 29.05188 | 106.80247 | 8523 ft | 260 kts | 70° |
| 2026-05-08 07:31 | 29.05783 | 106.82173 | 8405 ft | 257 kts | 70° |
| 2026-05-08 07:31 | 29.06433 | 106.84100 | 8421 ft | 267 kts | 60° |
| 2026-05-08 07:32 | 29.07511 | 106.85862 | 8448 ft | 275 kts | 51° |
| 2026-05-08 07:32 | 29.08675 | 106.87597 | 8401 ft | 277 kts | 52° |
| 2026-05-08 07:32 | 29.09814 | 106.89368 | 8320 ft | 275 kts | 53° |
| 2026-05-08 07:32 | 29.10925 | 106.91124 | 8262 ft | 272 kts | 53° |
| 2026-05-08 07:33 | 29.12146 | 106.92737 | 8185 ft | 268 kts | 37° |
| 2026-05-08 07:33 | 29.13626 | 106.93997 | 8154 ft | 266 kts | 36° |
| 2026-05-08 07:33 | 29.15083 | 106.95294 | 8084 ft | 265 kts | 37° |
| 2026-05-08 07:33 | 29.16523 | 106.96613 | 8005 ft | 266 kts | 37° |
| 2026-05-08 07:34 | 29.17963 | 106.97934 | 7963 ft | 266 kts | 37° |
| 2026-05-08 07:34 | 29.19522 | 106.99067 | 7879 ft | 266 kts | 21° |
| 2026-05-08 07:34 | 29.21239 | 106.99846 | 7830 ft | 266 kts | 20° |
| 2026-05-08 07:34 | 29.22950 | 107.00642 | 7749 ft | 268 kts | 21° |
| 2026-05-08 07:35 | 29.24670 | 107.01467 | 7700 ft | 269 kts | 21° |
| 2026-05-08 07:35 | 29.26385 | 107.02297 | 7629 ft | 268 kts | 20° |
| 2026-05-08 07:35 | 29.28174 | 107.02826 | 7563 ft | 266 kts | 4° |
| 2026-05-08 07:35 | 29.30018 | 107.03048 | 7506 ft | 267 kts | 4° |
| 2026-05-08 07:36 | 29.31859 | 107.03299 | 7431 ft | 267 kts | 5° |
| 2026-05-08 07:36 | 29.33692 | 107.03568 | 7364 ft | 266 kts | 5° |
| 2026-05-08 07:36 | 29.35521 | 107.03837 | 7301 ft | 265 kts | 3° |
| 2026-05-08 07:36 | 29.37339 | 107.03737 | 7233 ft | 261 kts | 348° |
| 2026-05-08 07:37 | 29.39133 | 107.03403 | 7180 ft | 260 kts | 349° |
| 2026-05-08 07:37 | 29.40908 | 107.03078 | 7114 ft | 259 kts | 345° |
| 2026-05-08 07:37 | 29.42484 | 107.02190 | 7034 ft | 253 kts | 313° |
| 2026-05-08 07:37 | 29.43429 | 107.00552 | 6988 ft | 246 kts | 287° |
| 2026-05-08 07:38 | 29.43666 | 106.98644 | 6947 ft | 243 kts | 264° |
| 2026-05-08 07:38 | 29.43352 | 106.96747 | 6891 ft | 243 kts | 255° |
| 2026-05-08 07:38 | 29.42893 | 106.94879 | 6835 ft | 245 kts | 253° |
| 2026-05-08 07:38 | 29.42407 | 106.93000 | 6754 ft | 246 kts | 252° |
| 2026-05-08 07:39 | 29.41923 | 106.91123 | 6700 ft | 247 kts | 253° |
| 2026-05-08 07:39 | 29.41441 | 106.89236 | 6640 ft | 247 kts | 253° |
| 2026-05-08 07:39 | 29.40960 | 106.87338 | 6591 ft | 247 kts | 253° |
| 2026-05-08 07:39 | 29.40485 | 106.85447 | 6513 ft | 248 kts | 253° |
| 2026-05-08 07:40 | 29.40012 | 106.83553 | 6452 ft | 247 kts | 253° |
| 2026-05-08 07:40 | 29.39542 | 106.81665 | 6402 ft | 247 kts | 253° |
| 2026-05-08 07:40 | 29.39071 | 106.79776 | 6336 ft | 245 kts | 252° |
| 2026-05-08 07:40 | 29.38607 | 106.77904 | 6265 ft | 245 kts | 253° |
| 2026-05-08 07:41 | 29.38142 | 106.76034 | 6225 ft | 244 kts | 253° |
| 2026-05-08 07:41 | 29.37677 | 106.74165 | 6173 ft | 244 kts | 252° |
| 2026-05-08 07:41 | 29.37215 | 106.72299 | 6093 ft | 243 kts | 252° |
| 2026-05-08 07:41 | 29.36758 | 106.70461 | 6005 ft | 239 kts | 252° |
| 2026-05-08 07:42 | 29.36309 | 106.68657 | 5917 ft | 233 kts | 253° |
| 2026-05-08 07:42 | 29.35874 | 106.66908 | 5889 ft | 221 kts | 253° |
| 2026-05-08 07:42 | 29.35796 | 106.65205 | 5874 ft | 214 kts | 283° |
| 2026-05-08 07:42 | 29.36089 | 106.64131 | 5904 ft | 214 kts | 284° |
| 2026-05-08 07:43 | 29.36675 | 106.61896 | 5904 ft | 225 kts | 284° |
| 2026-05-08 07:43 | 29.37126 | 106.60173 | 5905 ft | 226 kts | 284° |
| 2026-05-08 07:43 | 29.37426 | 106.59033 | 5901 ft | 225 kts | 284° |
| 2026-05-08 07:43 | 29.38025 | 106.56752 | 5884 ft | 223 kts | 284° |
| 2026-05-08 07:44 | 29.38513 | 106.55076 | 5862 ft | 223 kts | 296° |
| 2026-05-08 07:44 | 29.39600 | 106.53870 | 5893 ft | 227 kts | 336° |
| 2026-05-08 07:44 | 29.41177 | 106.53707 | 5934 ft | 233 kts | 9° |
| 2026-05-08 07:44 | 29.42793 | 106.54104 | 5803 ft | 243 kts | 13° |
| 2026-05-08 07:45 | 29.44443 | 106.54603 | 5553 ft | 247 kts | 16° |
| 2026-05-08 07:45 | 29.46094 | 106.55160 | 5320 ft | 248 kts | 17° |
| 2026-05-08 07:45 | 29.47750 | 106.55737 | 5060 ft | 249 kts | 17° |
| 2026-05-08 07:45 | 29.49399 | 106.56314 | 4817 ft | 249 kts | 18° |
| 2026-05-08 07:46 | 29.51045 | 106.56888 | 4553 ft | 246 kts | 18° |
| 2026-05-08 07:46 | 29.52669 | 106.57453 | 4281 ft | 242 kts | 19° |
| 2026-05-08 07:46 | 29.54267 | 106.58009 | 4035 ft | 238 kts | 19° |
| 2026-05-08 07:46 | 29.55816 | 106.58547 | 3915 ft | 228 kts | 19° |
| 2026-05-08 07:47 | 29.57282 | 106.59056 | 3874 ft | 213 kts | 19° |
| 2026-05-08 07:47 | 29.58655 | 106.59534 | 3780 ft | 204 kts | 19° |
| 2026-05-08 07:47 | 29.60007 | 106.60005 | 3552 ft | 203 kts | 20° |
| 2026-05-08 07:47 | 29.61355 | 106.60475 | 3303 ft | 202 kts | 20° |
| 2026-05-08 07:48 | 29.62689 | 106.60938 | 3034 ft | 197 kts | 20° |
| 2026-05-08 07:48 | 29.63957 | 106.61380 | 2741 ft | 184 kts | 19° |
| 2026-05-08 07:48 | 29.65124 | 106.61784 | 2554 ft | 173 kts | 19° |
| 2026-05-08 07:48 | 29.66276 | 106.62186 | 2345 ft | 167 kts | 20° |
| 2026-05-08 07:49 | 29.67351 | 106.62561 | 2033 ft | 158 kts | 17° |
| 2026-05-08 07:49 | 29.68345 | 106.62905 | 1833 ft | 149 kts | 18° |
| 2026-05-08 07:49 | 29.69316 | 106.63244 | 1663 ft | 145 kts | 16° |
| 2026-05-08 07:49 | 29.69950 | 106.63462 | 1505 ft | 145 kts | 17° |
| 2026-05-08 07:50 | 29.71188 | 106.63895 | 1358 ft | 143 kts | 17° |
| 2026-05-08 07:50 | 29.71949 | 106.64160 | 1360 ft | 84 kts | 18° |
| 2026-05-08 07:50 | 29.72304 | 106.64285 | 1359 ft | 23 kts | 18° |
| 2026-05-08 07:50 | 29.72343 | 106.64299 | 1360 ft | 5 kts | 17° |
| 2026-05-08 07:51 | 29.72449 | 106.64337 | 1360 ft | 28 kts | 17° |
| 2026-05-08 07:51 | 29.72617 | 106.64410 | 1359 ft | 24 kts | 30° |
| 2026-05-08 07:51 | 29.72723 | 106.64505 | 1358 ft | 12 kts | 44° |
| 2026-05-08 07:51 | 29.72763 | 106.64552 | 1359 ft | 8 kts | 46° |
| 2026-05-08 07:52 | 29.72782 | 106.64604 | 1357 ft | 8 kts | 97° |
| 2026-05-08 07:52 | 29.72744 | 106.64639 | 1358 ft | 7 kts | 174° |
| 2026-05-08 07:52 | 29.72696 | 106.64625 | 1357 ft | 7 kts | 198° |
| 2026-05-08 07:52 | 29.72650 | 106.64607 | 1356 ft | 7 kts | 198° |
| 2026-05-08 07:53 | 29.72604 | 106.64591 | 1357 ft | 7 kts | 197° |
| 2026-05-08 07:53 | 29.72559 | 106.64577 | 1357 ft | 7 kts | 193° |
| 2026-05-08 07:53 | 29.72518 | 106.64591 | 1355 ft | 7 kts | 123° |
| 2026-05-08 07:53 | 29.72501 | 106.64643 | 1354 ft | 7 kts | 107° |
| 2026-05-08 07:54 | 29.72487 | 106.64695 | 1356 ft | 7 kts | 107° |
| 2026-05-08 07:54 | 29.72473 | 106.64746 | 1355 ft | 7 kts | 107° |
| 2026-05-08 07:54 | 29.72460 | 106.64796 | 1355 ft | 7 kts | 107° |
| 2026-05-08 07:54 | 29.72447 | 106.64845 | 1356 ft | 6 kts | 107° |
| 2026-05-08 07:55 | 29.72434 | 106.64893 | 1354 ft | 6 kts | 110° |
| 2026-05-08 07:55 | 29.72404 | 106.64926 | 1355 ft | 6 kts | 160° |
| 2026-05-08 07:55 | 29.72361 | 106.64923 | 1355 ft | 6 kts | 196° |
| 2026-05-08 07:55 | 29.72319 | 106.64908 | 1356 ft | 6 kts | 196° |
| 2026-05-08 07:56 | 29.72278 | 106.64895 | 1355 ft | 6 kts | 196° |
| 2026-05-08 07:56 | 29.72238 | 106.64881 | 1356 ft | 1 kts | 196° |
| 2026-05-08 07:57 | 29.72224 | 106.64876 | 1355 ft | 8 kts | 196° |
| 2026-05-08 07:57 | 29.72205 | 106.64871 | 1356 ft | 0 kts | 185° |
| 2026-05-08 07:57 | 29.72196 | 106.64886 | 1355 ft | 3 kts | 96° |
| 2026-05-08 07:58 | 29.72192 | 106.64910 | 1354 ft | 3 kts | 101° |
| 2026-05-08 07:58 | 29.72186 | 106.64935 | 1354 ft | 3 kts | 107° |
| 2026-05-08 07:58 | 29.72173 | 106.64985 | 1353 ft | 7 kts | 107° |
| 2026-05-08 07:58 | 29.72140 | 106.65017 | 1354 ft | 7 kts | 186° |
| 2026-05-08 07:59 | 29.72133 | 106.65014 | 1353 ft | 0 kts | 197° |
| 2026-05-08 07:59 | 29.72116 | 106.65008 | 1353 ft | 5 kts | 197° |
| 2026-05-08 07:59 | 29.72084 | 106.64997 | 1354 ft | 5 kts | 196° |
| 2026-05-08 07:59 | 29.72053 | 106.64987 | 1355 ft | 5 kts | 196° |
| 2026-05-08 08:00 | 29.72023 | 106.64977 | 1353 ft | 5 kts | 196° |
| 2026-05-08 08:00 | 29.71992 | 106.64966 | 1353 ft | 4 kts | 197° |
| 2026-05-08 08:00 | 29.71963 | 106.64957 | 1356 ft | 4 kts | 191° |
| 2026-05-08 08:00 | 29.71939 | 106.64973 | 1354 ft | 5 kts | 128° |
| 2026-05-08 08:01 | 29.71927 | 106.65006 | 1353 ft | 1 kts | 106° |
| 2026-05-08 08:01 | 29.71926 | 106.65011 | 1353 ft | 2 kts | 106° |
| 2026-05-08 08:01 | 29.71924 | 106.65018 | 1353 ft | 0 kts | 105° |
| 2026-05-08 08:01 | 29.71923 | 106.65022 | 1353 ft | 1 kts | 105° |
| 2026-05-08 08:07 | 0.00884 | 0.00000 | 53808 ft | 0 kts | 0° |
| 2026-05-08 08:08 | 0.00000 | 0.00000 | 1056 ft | 0 kts | 355° |